createdAt,value
2022-11-13T00:01:30.918Z,9.77
2022-11-13T00:03:58.539Z,9.81
2022-11-13T00:06:25.027Z,9.83
2022-11-13T00:08:53.930Z,9.87
2022-11-13T00:11:21.024Z,9.85
2022-11-13T00:13:48.020Z,9.87
2022-11-13T00:16:15.305Z,9.87
2022-11-13T00:18:42.722Z,9.88
2022-11-13T00:21:19.703Z,9.86
2022-11-13T00:23:46.262Z,9.85
2022-11-13T00:26:20.042Z,9.84
2022-11-13T00:28:46.507Z,9.83
2022-11-13T00:31:14.768Z,9.84
2022-11-13T00:36:27.995Z,9.83
2022-11-13T00:38:54.976Z,9.80
2022-11-13T00:41:21.715Z,9.77
2022-11-13T00:43:47.987Z,9.78
2022-11-13T00:46:14.282Z,9.74
2022-11-13T00:48:40.597Z,9.71
2022-11-13T00:51:07.138Z,9.72
2022-11-13T00:53:33.411Z,9.72
2022-11-13T00:56:00.465Z,9.66
2022-11-13T00:58:27.713Z,9.62
2022-11-13T01:00:54.343Z,9.62
2022-11-13T01:03:20.595Z,9.61
2022-11-13T01:05:47.288Z,9.60
2022-11-13T01:08:14.583Z,9.59
2022-11-13T01:10:50.402Z,9.58
2022-11-13T01:13:19.995Z,9.55
2022-11-13T01:15:46.443Z,9.51
2022-11-13T01:18:13.086Z,9.53
2022-11-13T01:20:39.568Z,9.54
2022-11-13T01:23:05.892Z,9.51
2022-11-13T01:25:32.420Z,9.50
2022-11-13T01:27:58.761Z,9.50
2022-11-13T01:30:25.328Z,9.43
2022-11-13T01:32:51.624Z,9.39
2022-11-13T01:35:17.995Z,9.38
2022-11-13T01:37:44.445Z,9.37
2022-11-13T01:40:12.346Z,9.35
2022-11-13T01:42:38.763Z,9.32
2022-11-13T01:45:25.068Z,9.35
2022-11-13T01:47:51.435Z,9.34
2022-11-13T01:50:17.864Z,9.35
2022-11-13T01:52:44.132Z,9.35
2022-11-13T01:55:15.932Z,9.33
2022-11-13T01:57:42.410Z,9.29
2022-11-13T02:00:10.010Z,9.30
2022-11-13T02:02:36.618Z,9.30
2022-11-13T02:05:03.366Z,9.28
2022-11-13T02:07:29.884Z,9.29
2022-11-13T02:09:57.817Z,9.27
2022-11-13T02:12:41.373Z,9.24
2022-11-13T02:15:08.174Z,9.22
2022-11-13T02:17:40.647Z,9.13
2022-11-13T02:20:07.437Z,9.11
2022-11-13T02:22:37.134Z,9.14
2022-11-13T02:25:04.024Z,9.16
2022-11-13T02:27:33.919Z,9.13
2022-11-13T02:30:15.912Z,9.15
2022-11-13T02:32:46.959Z,9.16
2022-11-13T02:35:14.919Z,9.20
2022-11-13T02:37:41.528Z,9.20
2022-11-13T02:40:08.273Z,9.15
2022-11-13T02:42:34.559Z,9.12
2022-11-13T02:45:01.236Z,9.08
2022-11-13T02:47:28.190Z,9.07
2022-11-13T02:49:54.464Z,9.07
2022-11-13T02:52:20.860Z,9.04
2022-11-13T02:54:47.223Z,9.03
2022-11-13T02:57:13.508Z,9.06
2022-11-13T02:59:40.099Z,9.04
2022-11-13T03:02:06.602Z,9.03
2022-11-13T03:04:57.140Z,9.00
2022-11-13T03:07:19.383Z,8.99
2022-11-13T03:09:45.863Z,8.99
2022-11-13T03:12:12.132Z,8.96
2022-11-13T03:14:38.422Z,8.95
2022-11-13T03:17:05.482Z,8.90
2022-11-13T03:19:31.778Z,8.89
2022-11-13T03:21:58.106Z,8.86
2022-11-13T03:24:24.435Z,8.81
2022-11-13T03:26:50.724Z,8.81
2022-11-13T03:29:17.028Z,8.82
2022-11-13T03:31:43.327Z,8.84
2022-11-13T03:34:09.679Z,8.83
2022-11-13T03:36:35.973Z,8.82
2022-11-13T03:39:02.375Z,8.75
2022-11-13T03:41:28.634Z,8.73
2022-11-13T03:43:54.913Z,8.72
2022-11-13T03:46:21.250Z,8.72
2022-11-13T03:48:47.815Z,8.66
2022-11-13T03:51:14.233Z,8.63
2022-11-13T03:53:40.603Z,8.59
2022-11-13T03:56:07.025Z,8.58
2022-11-13T03:58:34.107Z,8.55
2022-11-13T04:01:02.681Z,8.51
2022-11-13T04:03:28.944Z,8.50
2022-11-13T04:05:55.250Z,8.44
2022-11-13T04:08:21.524Z,8.44
2022-11-13T04:10:47.842Z,8.41
2022-11-13T04:13:14.141Z,8.35
2022-11-13T04:15:40.419Z,8.35
2022-11-13T04:18:06.700Z,8.36
2022-11-13T04:20:33.014Z,8.35
2022-11-13T04:22:59.764Z,8.32
2022-11-13T04:25:26.351Z,8.29
2022-11-13T04:27:53.256Z,8.32
2022-11-13T04:30:19.718Z,8.32
2022-11-13T04:32:45.980Z,8.37
2022-11-13T04:35:12.339Z,8.39
2022-11-13T04:37:38.631Z,8.40
2022-11-13T04:40:05.375Z,8.32
2022-11-13T04:42:50.045Z,8.28
2022-11-13T04:45:18.003Z,8.21
2022-11-13T04:47:44.721Z,8.24
2022-11-13T04:50:11.459Z,8.25
2022-11-13T04:52:37.778Z,8.23
2022-11-13T04:55:04.423Z,8.28
2022-11-13T04:57:30.755Z,8.27
2022-11-13T04:59:57.100Z,8.30
2022-11-13T05:02:24.002Z,8.25
2022-11-13T05:04:50.375Z,8.25
2022-11-13T05:07:16.719Z,8.25
2022-11-13T05:09:43.112Z,8.27
2022-11-13T05:12:09.700Z,8.11
2022-11-13T05:14:36.476Z,8.28
2022-11-13T05:17:03.225Z,8.28
2022-11-13T05:19:29.528Z,8.30
2022-11-13T05:21:55.860Z,8.29
2022-11-13T05:24:22.126Z,8.24
2022-11-13T05:26:48.472Z,8.10
2022-11-13T05:29:14.769Z,8.23
2022-11-13T05:31:41.172Z,8.20
2022-11-13T05:34:07.522Z,8.23
2022-11-13T05:36:33.960Z,8.26
2022-11-13T05:39:00.396Z,8.31
2022-11-13T05:41:26.681Z,8.27
2022-11-13T05:43:59.013Z,8.27
2022-11-13T05:46:27.392Z,8.27
2022-11-13T05:49:00.835Z,8.27
2022-11-13T05:51:28.476Z,8.26
2022-11-13T05:53:55.063Z,8.10
2022-11-13T05:56:22.975Z,8.09
2022-11-13T05:58:49.969Z,8.07
2022-11-13T06:01:16.240Z,8.06
2022-11-13T06:03:43.064Z,8.00
2022-11-13T06:06:10.860Z,7.95
2022-11-13T06:08:37.823Z,7.89
2022-11-13T06:11:05.522Z,7.90
2022-11-13T06:13:32.051Z,7.88
2022-11-13T06:16:05.825Z,7.81
2022-11-13T06:18:32.803Z,7.85
2022-11-13T06:21:03.476Z,7.80
2022-11-13T06:23:31.520Z,7.75
2022-11-13T06:26:01.922Z,7.84
2022-11-13T06:28:28.437Z,7.83
2022-11-13T06:30:54.991Z,7.87
2022-11-13T06:33:21.282Z,7.95
2022-11-13T06:35:47.535Z,7.90
2022-11-13T06:38:13.780Z,7.87
2022-11-13T06:40:40.266Z,7.83
2022-11-13T06:43:06.593Z,7.83
2022-11-13T06:45:32.944Z,7.85
2022-11-13T06:47:59.282Z,7.82
2022-11-13T06:50:25.533Z,7.84
2022-11-13T06:52:52.043Z,7.82
2022-11-13T06:55:18.834Z,7.79
2022-11-13T06:57:45.105Z,7.78
2022-11-13T07:00:11.695Z,7.77
2022-11-13T07:02:37.949Z,7.77
2022-11-13T07:05:04.300Z,7.71
2022-11-13T07:07:30.611Z,7.80
2022-11-13T07:09:56.899Z,7.83
2022-11-13T07:12:23.224Z,7.78
2022-11-13T07:14:49.474Z,7.75
2022-11-13T07:17:16.198Z,7.72
2022-11-13T07:19:42.480Z,7.75
2022-11-13T07:22:08.715Z,7.72
2022-11-13T07:24:34.949Z,7.70
2022-11-13T07:27:01.205Z,7.70
2022-11-13T07:29:27.607Z,7.72
2022-11-13T07:31:54.308Z,7.76
2022-11-13T07:34:20.567Z,7.82
2022-11-13T07:36:46.799Z,7.86
2022-11-13T07:39:13.058Z,7.85
2022-11-13T07:41:42.281Z,7.90
2022-11-13T07:44:09.591Z,7.89
2022-11-13T07:46:36.398Z,7.93
2022-11-13T07:49:02.688Z,7.98
2022-11-13T07:51:29.108Z,8.02
2022-11-13T07:53:55.479Z,8.06
2022-11-13T07:56:23.347Z,8.13
2022-11-13T07:58:49.726Z,8.08
2022-11-13T08:01:16.915Z,8.16
2022-11-13T08:03:43.347Z,8.26
2022-11-13T08:06:10.422Z,8.32
2022-11-13T08:08:36.704Z,8.34
2022-11-13T08:11:03.927Z,8.40
2022-11-13T08:13:30.305Z,8.44
2022-11-13T08:15:58.745Z,8.49
2022-11-13T08:19:03.823Z,8.59
2022-11-13T08:21:30.260Z,8.63
2022-11-13T08:23:56.630Z,8.69
2022-11-13T08:26:23.225Z,8.74
2022-11-13T08:28:49.523Z,8.76
2022-11-13T08:31:16.611Z,8.82
2022-11-13T08:33:43.410Z,8.87
2022-11-13T08:36:10.794Z,8.86
2022-11-13T08:38:37.175Z,8.91
2022-11-13T08:41:08.920Z,8.96
2022-11-13T08:43:36.080Z,8.99
2022-11-13T08:46:04.311Z,9.03
2022-11-13T08:48:31.083Z,9.08
2022-11-13T08:50:57.890Z,9.11
2022-11-13T08:53:24.471Z,9.14
2022-11-13T08:55:50.799Z,9.16
2022-11-13T08:58:17.468Z,9.19
2022-11-13T09:00:43.769Z,9.23
2022-11-13T09:03:11.347Z,9.22
2022-11-13T09:05:37.669Z,9.25
2022-11-13T09:08:04.447Z,9.28
2022-11-13T09:10:30.722Z,9.28
2022-11-13T09:12:58.067Z,9.34
2022-11-13T09:15:24.816Z,9.36
2022-11-13T09:17:51.194Z,9.40
2022-11-13T09:20:22.433Z,9.42
2022-11-13T09:22:49.365Z,9.45
2022-11-13T09:25:15.691Z,9.50
2022-11-13T09:27:41.982Z,9.50
2022-11-13T09:30:09.256Z,9.52
2022-11-13T09:32:35.574Z,9.56
2022-11-13T09:35:02.097Z,9.62
2022-11-13T09:37:28.396Z,9.67
2022-11-13T09:39:54.688Z,9.71
2022-11-13T09:42:24.566Z,9.74
2022-11-13T09:45:12.259Z,9.79
2022-11-13T09:47:43.837Z,9.85
2022-11-13T09:50:10.478Z,9.90
2022-11-13T09:52:37.928Z,9.78
2022-11-13T09:55:04.406Z,10.05
2022-11-13T09:58:09.318Z,10.11
2022-11-13T10:00:36.230Z,10.20
2022-11-13T10:03:39.465Z,10.25
2022-11-13T10:06:46.985Z,10.34
2022-11-13T10:09:23.888Z,10.45
2022-11-13T10:11:55.485Z,10.51
2022-11-13T10:14:25.282Z,10.52
2022-11-13T10:16:57.147Z,10.57
2022-11-13T10:19:23.416Z,10.61
2022-11-13T10:22:26.489Z,10.70
2022-11-13T10:24:52.570Z,10.76
2022-11-13T10:27:18.855Z,10.81
2022-11-13T10:29:48.997Z,10.91
2022-11-13T10:32:20.671Z,10.97
2022-11-13T10:34:54.343Z,10.97
2022-11-13T10:37:49.875Z,10.99
2022-11-13T10:40:29.619Z,10.98
2022-11-13T10:43:04.789Z,11.02
2022-11-13T10:45:31.119Z,11.10
2022-11-13T10:48:04.261Z,11.18
2022-11-13T10:50:31.563Z,11.25
2022-11-13T10:52:57.864Z,11.27
2022-11-13T10:55:36.536Z,11.25
2022-11-13T10:58:04.813Z,11.26
2022-11-13T11:00:38.675Z,11.28
2022-11-13T11:03:08.185Z,11.30
2022-11-13T11:05:34.551Z,11.37
2022-11-13T11:08:00.933Z,11.45
2022-11-13T11:10:57.026Z,11.46
2022-11-13T11:13:24.038Z,11.39
2022-11-13T11:15:53.937Z,11.57
2022-11-13T11:18:30.618Z,11.59
2022-11-13T11:20:58.267Z,11.69
2022-11-13T11:23:31.084Z,11.50
2022-11-13T11:25:59.571Z,11.80
2022-11-13T11:28:31.692Z,11.86
2022-11-13T11:31:04.461Z,11.90
2022-11-13T11:33:48.667Z,11.93
2022-11-13T11:36:17.988Z,11.90
2022-11-13T11:38:51.910Z,11.92
2022-11-13T11:41:20.111Z,11.93
2022-11-13T11:43:49.562Z,12.06
2022-11-13T11:46:19.664Z,12.12
2022-11-13T11:48:45.942Z,12.12
2022-11-13T11:51:15.954Z,12.18
2022-11-13T11:53:53.569Z,12.16
2022-11-13T11:56:33.593Z,12.23
2022-11-13T11:59:18.688Z,12.27
2022-11-13T12:01:47.947Z,12.27
2022-11-13T12:04:34.864Z,12.30
2022-11-13T12:07:19.647Z,12.35
2022-11-13T12:09:57.117Z,12.35
2022-11-13T12:12:42.288Z,12.45
2022-11-13T12:15:26.300Z,12.56
2022-11-13T12:17:52.610Z,12.61
2022-11-13T12:20:28.792Z,12.62
2022-11-13T12:23:10.800Z,12.58
2022-11-13T12:25:39.476Z,12.57
2022-11-13T12:28:27.331Z,12.54
2022-11-13T12:30:56.855Z,12.59
2022-11-13T12:33:34.193Z,12.62
2022-11-13T12:36:01.189Z,12.49
2022-11-13T12:38:32.835Z,12.46
2022-11-13T12:40:59.086Z,12.46
2022-11-13T12:43:37.683Z,12.42
2022-11-13T12:46:08.277Z,12.48
2022-11-13T12:48:35.822Z,12.53
2022-11-13T12:51:07.723Z,12.44
2022-11-13T12:53:44.893Z,12.44
2022-11-13T12:56:15.739Z,12.47
2022-11-13T12:59:15.407Z,12.45
2022-11-13T13:01:43.350Z,12.50
2022-11-13T13:04:18.932Z,12.53
2022-11-13T13:06:45.277Z,12.51
2022-11-13T13:09:21.543Z,12.48
2022-11-13T13:12:07.329Z,12.38
2022-11-13T13:14:39.852Z,12.28
2022-11-13T13:17:16.831Z,12.18
2022-11-13T13:19:43.235Z,12.18
2022-11-13T13:22:24.400Z,12.26
2022-11-13T13:24:58.576Z,12.30
2022-11-13T13:27:25.963Z,12.41
2022-11-13T13:29:52.268Z,12.50
2022-11-13T13:32:23.197Z,12.36
2022-11-13T13:35:06.918Z,12.56
2022-11-13T13:37:53.443Z,12.43
2022-11-13T13:40:28.944Z,12.37
2022-11-13T13:43:04.334Z,12.38
2022-11-13T13:45:47.388Z,12.47
2022-11-13T13:48:16.062Z,12.50
2022-11-13T13:50:45.650Z,12.39
2022-11-13T13:53:13.320Z,12.42
2022-11-13T13:55:44.943Z,12.49
2022-11-13T13:58:14.332Z,12.41
2022-11-13T14:00:59.041Z,12.34
2022-11-13T14:03:29.076Z,12.26
2022-11-13T14:06:00.926Z,12.11
2022-11-13T14:08:29.836Z,11.98
2022-11-13T14:10:56.332Z,11.87
2022-11-13T14:13:26.605Z,11.82
2022-11-13T14:16:02.985Z,11.82
2022-11-13T14:18:30.003Z,11.80
2022-11-13T14:20:58.679Z,11.93
2022-11-13T14:23:34.868Z,12.06
2022-11-13T14:26:01.774Z,12.03
2022-11-13T14:28:29.973Z,11.99
2022-11-13T14:31:07.137Z,11.92
2022-11-13T14:33:41.635Z,11.85
2022-11-13T14:36:08.340Z,11.92
2022-11-13T14:38:35.886Z,12.11
2022-11-13T14:41:03.506Z,12.08
2022-11-13T14:43:31.258Z,11.95
2022-11-13T14:46:02.745Z,11.84
2022-11-13T14:48:33.418Z,11.74
2022-11-13T14:50:59.771Z,11.65
2022-11-13T14:53:28.073Z,11.58
2022-11-13T14:55:56.010Z,11.53
2022-11-13T14:58:36.324Z,11.30
2022-11-13T15:01:35.266Z,11.50
2022-11-13T15:04:01.667Z,11.53
2022-11-13T15:06:34.603Z,11.65
2022-11-13T15:09:01.149Z,11.71
2022-11-13T15:11:27.501Z,11.66
2022-11-13T15:13:53.957Z,11.60
2022-11-13T15:16:23.031Z,11.53
2022-11-13T15:18:54.143Z,11.47
2022-11-13T15:21:20.499Z,11.42
2022-11-13T15:23:46.858Z,11.37
2022-11-13T15:26:13.543Z,11.33
2022-11-13T15:28:39.873Z,11.29
2022-11-13T15:31:14.904Z,11.25
2022-11-13T15:33:41.218Z,11.25
2022-11-13T15:36:08.828Z,11.36
2022-11-13T15:38:35.203Z,11.41
2022-11-13T15:41:01.516Z,11.02
2022-11-13T15:43:28.038Z,11.36
2022-11-13T15:45:54.511Z,11.42
2022-11-13T15:48:20.852Z,11.48
2022-11-13T15:50:47.165Z,11.55
2022-11-13T15:53:13.489Z,11.57
2022-11-13T15:55:40.740Z,11.56
2022-11-13T15:58:13.759Z,11.52
2022-11-13T16:00:42.726Z,11.44
2022-11-13T16:03:11.978Z,11.39
2022-11-13T16:05:38.409Z,11.35
2022-11-13T16:08:11.826Z,11.39
2022-11-13T16:10:38.131Z,11.38
2022-11-13T16:13:04.564Z,11.34
2022-11-13T16:15:30.908Z,11.32
2022-11-13T16:17:57.828Z,11.29
2022-11-13T16:20:28.840Z,11.25
2022-11-13T16:22:56.189Z,11.22
2022-11-13T16:25:22.618Z,11.22
2022-11-13T16:27:48.939Z,11.17
2022-11-13T16:30:23.320Z,11.12
2022-11-13T16:32:49.700Z,11.08
2022-11-13T16:35:17.103Z,11.05
2022-11-13T16:37:43.449Z,11.00
2022-11-13T16:40:15.312Z,10.97
2022-11-13T16:42:41.584Z,10.93
2022-11-13T16:45:08.008Z,10.92
2022-11-13T16:47:34.402Z,10.87
2022-11-13T16:50:00.919Z,10.83
2022-11-13T16:52:27.217Z,10.75
2022-11-13T16:54:53.552Z,10.74
2022-11-13T16:57:19.939Z,10.69
2022-11-13T16:59:46.228Z,10.61
2022-11-13T17:02:13.864Z,10.58
2022-11-13T17:04:40.448Z,10.52
2022-11-13T17:07:06.861Z,10.48
2022-11-13T17:09:33.191Z,10.44
2022-11-13T17:11:59.489Z,10.43
2022-11-13T17:14:25.898Z,10.44
2022-11-13T17:16:52.234Z,10.38
2022-11-13T17:19:18.560Z,10.27
2022-11-13T17:21:44.848Z,10.19
2022-11-13T17:24:11.116Z,10.15
2022-11-13T17:26:37.465Z,10.20
2022-11-13T17:29:05.627Z,10.19
2022-11-13T17:31:32.112Z,10.14
2022-11-13T17:33:58.451Z,10.11
2022-11-13T17:36:24.901Z,10.03
2022-11-13T17:38:51.228Z,10.00
2022-11-13T17:41:17.714Z,10.03
2022-11-13T17:43:44.282Z,9.99
2022-11-13T17:46:14.712Z,9.86
2022-11-13T17:48:41.464Z,9.92
2022-11-13T17:51:09.903Z,9.89
2022-11-13T17:53:36.240Z,9.88
2022-11-13T17:56:03.671Z,9.90
2022-11-13T17:58:30.068Z,9.93
2022-11-13T18:01:04.104Z,9.92
2022-11-13T18:03:31.286Z,9.90
2022-11-13T18:05:57.806Z,9.88
2022-11-13T18:08:24.124Z,9.84
2022-11-13T18:10:50.410Z,9.80
2022-11-13T18:13:16.703Z,9.73
2022-11-13T18:15:44.096Z,9.78
2022-11-13T18:18:10.392Z,9.71
2022-11-13T18:20:39.156Z,9.75
2022-11-13T18:23:05.578Z,9.79
2022-11-13T18:25:38.329Z,9.74
2022-11-13T18:28:05.863Z,9.71
2022-11-13T18:30:32.250Z,9.72
2022-11-13T18:32:58.546Z,9.72
2022-11-13T18:35:24.829Z,9.69
2022-11-13T18:37:52.191Z,9.74
2022-11-13T18:40:18.690Z,9.76
2022-11-13T18:42:44.997Z,9.80
2022-11-13T18:45:11.767Z,9.76
2022-11-13T18:47:38.077Z,9.61
2022-11-13T18:50:04.686Z,9.55
2022-11-13T18:52:32.572Z,9.52
2022-11-13T18:54:58.848Z,9.42
2022-11-13T18:57:25.340Z,9.34
2022-11-13T18:59:51.660Z,9.33
2022-11-13T19:02:18.076Z,9.35
2022-11-13T19:04:44.631Z,9.40
2022-11-13T19:07:12.135Z,9.42
2022-11-13T19:09:44.694Z,9.48
2022-11-13T19:12:10.978Z,9.50
2022-11-13T19:14:37.257Z,9.56
2022-11-13T19:17:03.643Z,9.55
2022-11-13T19:19:29.930Z,9.53
2022-11-13T19:21:56.201Z,9.49
2022-11-13T19:24:22.526Z,9.43
2022-11-13T19:26:48.874Z,9.41
2022-11-13T19:29:15.194Z,9.39
2022-11-13T19:31:41.605Z,9.34
2022-11-13T19:34:08.180Z,9.36
2022-11-13T19:36:35.299Z,9.42
2022-11-13T19:39:01.726Z,9.46
2022-11-13T19:41:28.684Z,9.44
2022-11-13T19:43:56.862Z,9.45
2022-11-13T19:46:23.206Z,9.44
2022-11-13T19:48:50.126Z,9.40
2022-11-13T19:51:20.968Z,9.42
2022-11-13T19:53:47.579Z,9.33
2022-11-13T19:56:14.699Z,9.20
2022-11-13T19:58:43.956Z,9.02
2022-11-13T20:01:18.849Z,9.06
2022-11-13T20:03:45.442Z,8.95
2022-11-13T20:06:13.254Z,9.05
2022-11-13T20:08:39.932Z,9.05
2022-11-13T20:11:07.783Z,9.02
2022-11-13T20:13:36.483Z,9.03
2022-11-13T20:16:03.524Z,9.07
2022-11-13T20:18:30.167Z,9.10
2022-11-13T20:20:56.796Z,9.10
2022-11-13T20:23:23.890Z,9.15
2022-11-13T20:25:53.890Z,9.14
2022-11-13T20:28:20.654Z,9.10
2022-11-13T20:30:47.198Z,9.03
2022-11-13T20:33:15.311Z,9.03
2022-11-13T20:35:52.700Z,9.00
2022-11-13T20:38:18.994Z,8.87
2022-11-13T20:40:45.332Z,8.82
2022-11-13T20:43:11.615Z,8.82
2022-11-13T20:45:37.902Z,8.88
2022-11-13T20:48:04.696Z,8.90
2022-11-13T20:50:31.077Z,8.85
2022-11-13T20:52:57.407Z,8.73
2022-11-13T20:55:23.725Z,8.56
2022-11-13T20:57:50.284Z,8.51
2022-11-13T21:00:16.890Z,8.55
2022-11-13T21:02:43.191Z,8.56
2022-11-13T21:05:09.581Z,8.57
2022-11-13T21:07:36.014Z,8.53
2022-11-13T21:10:02.518Z,8.55
2022-11-13T21:12:30.610Z,8.45
2022-11-13T21:14:57.055Z,8.32
2022-11-13T21:17:23.582Z,8.27
2022-11-13T21:19:53.691Z,8.34
2022-11-13T21:22:22.711Z,8.25
2022-11-13T21:24:48.998Z,8.20
2022-11-13T21:27:15.295Z,8.08
2022-11-13T21:29:41.742Z,8.09
2022-11-13T21:32:08.104Z,8.02
2022-11-13T21:34:34.393Z,7.92
2022-11-13T21:37:00.689Z,7.91
2022-11-13T21:39:27.001Z,8.00
2022-11-13T21:41:54.033Z,7.97
2022-11-13T21:44:20.542Z,7.81
2022-11-13T21:46:46.957Z,7.73
2022-11-13T21:49:13.630Z,7.76
2022-11-13T21:51:41.177Z,7.72
2022-11-13T21:54:08.480Z,7.76
2022-11-13T21:56:36.253Z,7.71
2022-11-13T21:59:04.238Z,7.69
2022-11-13T22:01:36.624Z,7.67
2022-11-13T22:04:04.562Z,7.61
2022-11-13T22:06:31.535Z,7.48
2022-11-13T22:09:01.681Z,7.39
2022-11-13T22:11:29.159Z,7.41
2022-11-13T22:13:56.058Z,7.36
2022-11-13T22:16:22.746Z,7.20
2022-11-13T22:18:51.944Z,7.42
2022-11-13T22:21:18.220Z,7.35
2022-11-13T22:23:44.517Z,7.41
2022-11-13T22:26:12.582Z,7.47
2022-11-13T22:28:39.982Z,7.47
2022-11-13T22:31:06.921Z,7.47
2022-11-13T22:33:34.211Z,7.49
2022-11-13T22:36:04.664Z,7.54
2022-11-13T22:38:31.235Z,7.63
2022-11-13T22:41:01.800Z,7.62
2022-11-13T22:43:31.209Z,7.58
2022-11-13T22:46:00.928Z,7.66
2022-11-13T22:48:27.459Z,7.70
2022-11-13T22:50:53.945Z,7.72
2022-11-13T22:53:20.254Z,7.71
2022-11-13T22:55:46.558Z,7.65
2022-11-13T22:58:12.847Z,7.51
2022-11-13T23:00:39.132Z,7.51
2022-11-13T23:03:05.658Z,7.59
2022-11-13T23:05:34.278Z,7.68
2022-11-13T23:08:00.623Z,7.69
2022-11-13T23:10:26.939Z,7.78
2022-11-13T23:12:53.237Z,7.82
2022-11-13T23:15:19.512Z,7.88
2022-11-13T23:17:46.400Z,7.88
2022-11-13T23:20:12.895Z,7.81
2022-11-13T23:22:39.160Z,7.87
2022-11-13T23:25:05.588Z,7.82
2022-11-13T23:27:33.278Z,7.52
2022-11-13T23:29:59.556Z,7.40
2022-11-13T23:32:25.858Z,7.44
2022-11-13T23:34:58.991Z,7.39
2022-11-13T23:37:26.076Z,7.24
2022-11-13T23:39:52.388Z,7.26
2022-11-13T23:42:39.228Z,7.17
2022-11-13T23:45:05.296Z,6.92
2022-11-13T23:47:31.642Z,6.89
2022-11-13T23:49:58.023Z,6.79
2022-11-13T23:52:24.343Z,6.68
2022-11-13T23:54:50.689Z,6.52
2022-11-13T23:57:17.265Z,6.73
2022-11-13T23:59:43.544Z,6.76
